Time;durP1;ratioP1;P1;durP2;ratioP2;P2;SDS_P1;SDS_P2;PMS_P1;PMS_P2;Temp;Humidity;BMP_temperature;BMP_pressure;BME280_temperature;BME280_humidity;BME280_pressure;Samples;Min_cycle;Max_cycle;Signal;HPM_P1;HPM_P2
2022/05/08 00:01:35;;;;;;;;;;;7.10;99.90;;;;;;5051893;28;19916;-74
2022/05/08 00:04:01;;;;;;;;;;;7.00;99.90;;;;;;5051782;28;19909;-74
2022/05/08 00:06:27;;;;;;;;;;;6.90;99.90;;;;;;5052067;28;19908;-74
2022/05/08 00:08:52;;;;;;;;;;;7.00;99.90;;;;;;5051889;28;19919;-74
2022/05/08 00:11:17;;;;;;;;;;;7.00;99.90;;;;;;5052270;28;19948;-74
2022/05/08 00:13:43;;;;;;;;;;;6.90;99.90;;;;;;5052069;28;19919;-74
2022/05/08 00:16:09;;;;;;;;;;;6.90;99.90;;;;;;5056217;28;19909;-74
2022/05/08 00:18:34;;;;;;;;;;;6.80;99.90;;;;;;5075375;28;20340;-74
2022/05/08 00:21:00;;;;;;;;;;;6.70;99.90;;;;;;5074995;28;19966;-74
2022/05/08 00:23:26;;;;;;;;;;;6.70;99.90;;;;;;5056361;28;19954;-74
2022/05/08 00:25:51;;;;;;;;;;;6.70;99.90;;;;;;5055631;28;19913;-74
2022/05/08 00:28:17;;;;;;;;;;;6.60;99.90;;;;;;5055548;28;19912;-74
2022/05/08 00:30:42;;;;;;;;;;;6.70;99.90;;;;;;5055721;28;19909;-74
2022/05/08 00:33:08;;;;;;;;;;;6.70;99.90;;;;;;5055345;28;19962;-74
2022/05/08 00:35:33;;;;;;;;;;;6.70;99.90;;;;;;5055774;28;20306;-74
2022/05/08 00:37:59;;;;;;;;;;;6.70;99.90;;;;;;5056251;28;20392;-74
2022/05/08 00:40:24;;;;;;;;;;;6.70;99.90;;;;;;5055519;28;19909;-74
2022/05/08 00:42:50;;;;;;;;;;;6.70;99.90;;;;;;5054320;28;19944;-74
2022/05/08 00:45:15;;;;;;;;;;;6.70;99.90;;;;;;5059283;28;19909;-74
2022/05/08 00:47:41;;;;;;;;;;;6.60;99.90;;;;;;5055390;28;19919;-74
2022/05/08 00:50:06;;;;;;;;;;;6.60;99.90;;;;;;5064090;28;20007;-74
2022/05/08 00:52:34;;;;;;;;;;;6.50;99.90;;;;;;5055614;28;19913;-75
2022/05/08 00:55:00;;;;;;;;;;;6.40;99.90;;;;;;5057845;28;19916;-74
2022/05/08 00:57:26;;;;;;;;;;;6.40;99.90;;;;;;5073226;28;19913;-75
2022/05/08 00:59:51;;;;;;;;;;;6.30;99.90;;;;;;5059841;28;19916;-74
2022/05/08 01:02:17;;;;;;;;;;;6.20;99.90;;;;;;5057296;28;19916;-74
2022/05/08 01:04:42;;;;;;;;;;;6.20;99.90;;;;;;5059192;28;19962;-74
2022/05/08 01:07:08;;;;;;;;;;;6.30;99.90;;;;;;5055158;28;19909;-74
2022/05/08 01:09:34;;;;;;;;;;;6.20;99.90;;;;;;5054970;28;19996;-74
2022/05/08 01:11:59;;;;;;;;;;;6.20;99.90;;;;;;5054906;28;19909;-75
2022/05/08 01:14:25;;;;;;;;;;;6.30;99.90;;;;;;5055770;28;20460;-74
2022/05/08 01:16:50;;;;;;;;;;;6.30;99.90;;;;;;5074129;28;20371;-74
2022/05/08 01:19:16;;;;;;;;;;;6.20;99.90;;;;;;5064149;28;20003;-74
2022/05/08 01:21:42;;;;;;;;;;;6.20;99.90;;;;;;5054514;28;19932;-75
2022/05/08 01:24:08;;;;;;;;;;;6.10;99.90;;;;;;5054958;28;19909;-74
2022/05/08 01:26:34;;;;;;;;;;;6.10;99.90;;;;;;5061702;28;19909;-74
2022/05/08 01:29:00;;;;;;;;;;;6.10;99.90;;;;;;5074009;28;19939;-75
2022/05/08 01:31:25;;;;;;;;;;;6.00;99.90;;;;;;5074084;28;20270;-75
2022/05/08 01:33:51;;;;;;;;;;;5.90;99.90;;;;;;5068022;28;19916;-75
2022/05/08 01:36:16;;;;;;;;;;;5.80;99.90;;;;;;5055012;28;19909;-74
2022/05/08 01:38:42;;;;;;;;;;;5.90;99.90;;;;;;5062627;28;20293;-74
2022/05/08 01:41:08;;;;;;;;;;;6.00;99.90;;;;;;5059276;28;19915;-74
2022/05/08 01:43:37;;;;;;;;;;;5.80;99.90;;;;;;5073266;28;19940;-75
2022/05/08 01:46:03;;;;;;;;;;;5.80;99.90;;;;;;5073484;28;19908;-74
2022/05/08 01:48:28;;;;;;;;;;;5.80;99.90;;;;;;5066791;28;19939;-75
2022/05/08 01:50:55;;;;;;;;;;;5.90;99.90;;;;;;5057459;28;20417;-74
2022/05/08 01:53:21;;;;;;;;;;;6.00;99.90;;;;;;5053703;28;19909;-74
2022/05/08 01:55:49;;;;;;;;;;;5.90;99.90;;;;;;5054680;28;20370;-74
2022/05/08 01:58:16;;;;;;;;;;;5.90;99.90;;;;;;5054144;28;19916;-74
2022/05/08 02:00:41;;;;;;;;;;;6.00;99.90;;;;;;5054156;28;19909;-74
2022/05/08 02:03:07;;;;;;;;;;;5.90;99.90;;;;;;5053830;28;20034;-72
2022/05/08 02:05:33;;;;;;;;;;;5.80;99.90;;;;;;5056922;28;19987;-72
2022/05/08 02:08:00;;;;;;;;;;;5.70;99.90;;;;;;5056630;28;19913;-73
2022/05/08 02:10:26;;;;;;;;;;;5.60;99.90;;;;;;5056699;28;20000;-73
2022/05/08 02:12:51;;;;;;;;;;;5.70;99.90;;;;;;5055243;28;20279;-73
2022/05/08 02:15:17;;;;;;;;;;;5.60;99.90;;;;;;5053894;28;19951;-73
2022/05/08 02:17:42;;;;;;;;;;;5.60;99.90;;;;;;5054150;28;20071;-73
2022/05/08 02:20:08;;;;;;;;;;;5.80;99.90;;;;;;5053643;28;20368;-73
2022/05/08 02:22:34;;;;;;;;;;;5.90;99.90;;;;;;5055844;28;20404;-73
2022/05/08 02:25:00;;;;;;;;;;;5.90;99.90;;;;;;5055655;28;19995;-73
2022/05/08 02:27:25;;;;;;;;;;;5.80;99.90;;;;;;5071353;28;19908;-73
2022/05/08 02:29:51;;;;;;;;;;;5.80;99.90;;;;;;5066518;28;20346;-73
2022/05/08 02:32:18;;;;;;;;;;;5.80;99.90;;;;;;5072420;28;20452;-73
2022/05/08 02:37:48;;;;;;;;;;;5.70;99.90;;;;;;5069577;28;19923;-73
2022/05/08 02:40:14;;;;;;;;;;;5.60;99.90;;;;;;5051901;28;19959;-73
2022/05/08 02:42:40;;;;;;;;;;;5.60;99.90;;;;;;5053039;28;19913;-73
2022/05/08 02:45:08;;;;;;;;;;;5.60;99.90;;;;;;5052942;28;19909;-73
2022/05/08 02:47:34;;;;;;;;;;;5.60;99.90;;;;;;5053023;28;19916;-73
2022/05/08 02:49:59;;;;;;;;;;;5.50;99.90;;;;;;5052473;28;19916;-73
2022/05/08 02:52:25;;;;;;;;;;;5.50;99.90;;;;;;5065670;28;19908;-74
2022/05/08 02:54:50;;;;;;;;;;;5.40;99.90;;;;;;5052879;28;19909;-74
2022/05/08 03:00:18;;;;;;;;;;;5.20;99.90;;;;;;5050575;28;19999;-73
2022/05/08 03:02:43;;;;;;;;;;;5.40;99.90;;;;;;5051116;28;19991;-73
2022/05/08 03:05:09;;;;;;;;;;;5.30;99.90;;;;;;5052479;28;20028;-73
2022/05/08 03:07:34;;;;;;;;;;;5.30;99.90;;;;;;5052527;28;20000;-73
2022/05/08 03:09:59;;;;;;;;;;;5.30;99.90;;;;;;5052505;28;19912;-73
2022/05/08 03:12:25;;;;;;;;;;;5.30;99.90;;;;;;5052419;28;19909;-73
2022/05/08 03:14:51;;;;;;;;;;;5.40;99.90;;;;;;5052397;28;20301;-73
2022/05/08 03:17:17;;;;;;;;;;;5.30;99.90;;;;;;5046165;28;20046;-73
2022/05/08 03:19:42;;;;;;;;;;;5.30;99.90;;;;;;5055906;28;19962;-74
2022/05/08 03:22:08;;;;;;;;;;;5.20;99.90;;;;;;5056912;28;19923;-73
2022/05/08 03:24:34;;;;;;;;;;;5.30;99.90;;;;;;5052253;28;19970;-73
2022/05/08 03:27:00;;;;;;;;;;;5.30;99.90;;;;;;5052530;28;19913;-73
2022/05/08 03:29:26;;;;;;;;;;;5.30;99.90;;;;;;5052276;28;19923;-73
2022/05/08 03:31:52;;;;;;;;;;;5.30;99.90;;;;;;5052300;28;19955;-73
2022/05/08 03:34:17;;;;;;;;;;;5.30;99.90;;;;;;5052081;28;19912;-73
2022/05/08 03:36:43;;;;;;;;;;;5.30;99.90;;;;;;5052346;28;19947;-73
2022/05/08 03:39:11;;;;;;;;;;;5.30;99.90;;;;;;5052201;28;20003;-73
2022/05/08 03:41:37;;;;;;;;;;;5.20;99.90;;;;;;5052049;28;19991;-73
2022/05/08 03:44:02;;;;;;;;;;;5.20;99.90;;;;;;5051207;28;19955;-73
2022/05/08 03:46:28;;;;;;;;;;;5.10;99.90;;;;;;5052126;28;19962;-73
2022/05/08 03:48:54;;;;;;;;;;;5.10;99.90;;;;;;5051278;28;20002;-74
2022/05/08 03:51:19;;;;;;;;;;;5.00;99.90;;;;;;5052100;28;20292;-73
2022/05/08 03:53:45;;;;;;;;;;;5.00;99.90;;;;;;5051819;28;19913;-73
2022/05/08 03:56:10;;;;;;;;;;;5.00;99.90;;;;;;5052110;28;19909;-73
2022/05/08 03:58:36;;;;;;;;;;;5.00;99.90;;;;;;5052067;28;19917;-73
2022/05/08 04:01:02;;;;;;;;;;;5.00;99.90;;;;;;5051666;28;19995;-73
2022/05/08 04:03:27;;;;;;;;;;;5.00;99.90;;;;;;5052984;28;19908;-73
2022/05/08 04:05:52;;;;;;;;;;;5.00;99.90;;;;;;5065268;28;19944;-73
2022/05/08 04:08:18;;;;;;;;;;;4.90;99.90;;;;;;5071064;28;19913;-73
2022/05/08 04:10:43;;;;;;;;;;;4.80;99.90;;;;;;5071684;28;19954;-74
2022/05/08 04:13:09;;;;;;;;;;;4.90;99.90;;;;;;5070689;28;20285;-74
2022/05/08 04:18:19;;;;;;;;;;;4.90;99.90;;;;;;5054982;28;19916;-73
2022/05/08 04:20:44;;;;;;;;;;;5.00;99.90;;;;;;5051672;28;19909;-73
2022/05/08 04:25:54;;;;;;;;;;;5.20;99.90;;;;;;5050914;28;19978;-73
2022/05/08 04:28:20;;;;;;;;;;;5.30;99.90;;;;;;5051740;28;20365;-73
2022/05/08 04:30:46;;;;;;;;;;;5.40;99.90;;;;;;5051892;28;20012;-73
2022/05/08 04:33:12;;;;;;;;;;;5.60;99.90;;;;;;5050146;28;19955;-73
2022/05/08 04:35:37;;;;;;;;;;;5.80;99.90;;;;;;5051817;28;19913;-73
2022/05/08 04:38:02;;;;;;;;;;;5.90;99.90;;;;;;5051551;28;19916;-73
2022/05/08 04:40:28;;;;;;;;;;;6.00;99.90;;;;;;5051688;28;20008;-74
2022/05/08 04:42:54;;;;;;;;;;;5.90;99.90;;;;;;5051376;28;19915;-73
2022/05/08 04:45:19;;;;;;;;;;;5.80;99.90;;;;;;5050137;28;19939;-72
2022/05/08 04:47:45;;;;;;;;;;;5.70;99.90;;;;;;5051669;28;19917;-73
2022/05/08 04:50:10;;;;;;;;;;;5.70;99.90;;;;;;5050305;28;19948;-73
2022/05/08 04:52:36;;;;;;;;;;;5.60;99.90;;;;;;5052463;28;19931;-73
2022/05/08 04:55:03;;;;;;;;;;;5.60;99.90;;;;;;5070123;28;20040;-73
2022/05/08 04:57:29;;;;;;;;;;;5.60;99.90;;;;;;5070115;28;20331;-73
2022/05/08 04:59:55;;;;;;;;;;;5.70;99.90;;;;;;5070807;28;20285;-74
2022/05/08 05:02:20;;;;;;;;;;;5.70;99.90;;;;;;5054119;28;19908;-73
2022/05/08 05:04:46;;;;;;;;;;;5.60;99.90;;;;;;5056385;28;19909;-73
2022/05/08 05:07:11;;;;;;;;;;;5.60;99.90;;;;;;5054358;28;20263;-73
2022/05/08 05:09:37;;;;;;;;;;;5.60;99.90;;;;;;5054616;28;19919;-73
2022/05/08 05:12:03;;;;;;;;;;;5.60;99.90;;;;;;5054517;28;19931;-73
2022/05/08 05:14:31;;;;;;;;;;;5.70;99.90;;;;;;5054487;28;19955;-73
2022/05/08 05:16:57;;;;;;;;;;;5.70;99.90;;;;;;5067688;28;19909;-73
2022/05/08 05:19:23;;;;;;;;;;;5.80;99.90;;;;;;5058987;28;19967;-73
2022/05/08 05:21:48;;;;;;;;;;;5.90;99.90;;;;;;5052951;28;19913;-73
2022/05/08 05:24:14;;;;;;;;;;;6.00;99.90;;;;;;5054295;28;19909;-73
2022/05/08 05:26:39;;;;;;;;;;;6.20;99.90;;;;;;5047954;28;19986;-73
2022/05/08 05:29:05;;;;;;;;;;;6.20;99.90;;;;;;5068190;28;19919;-73
2022/05/08 05:31:30;;;;;;;;;;;6.30;99.90;;;;;;5065594;28;19913;-73
2022/05/08 05:33:56;;;;;;;;;;;6.30;99.90;;;;;;5062469;28;19915;-73
2022/05/08 05:36:21;;;;;;;;;;;6.40;99.90;;;;;;5073335;28;19909;-73
2022/05/08 05:38:47;;;;;;;;;;;6.50;99.90;;;;;;5073663;28;19909;-73
2022/05/08 05:41:12;;;;;;;;;;;6.60;99.90;;;;;;5060556;28;19908;-73
2022/05/08 05:43:38;;;;;;;;;;;6.70;99.90;;;;;;5063778;28;19917;-73
2022/05/08 05:48:47;;;;;;;;;;;6.80;99.90;;;;;;5053096;28;20008;-73
2022/05/08 05:51:13;;;;;;;;;;;7.00;99.90;;;;;;5053357;28;20000;-74
2022/05/08 05:53:38;;;;;;;;;;;7.10;99.90;;;;;;5053387;28;19909;-73
2022/05/08 05:56:04;;;;;;;;;;;7.10;99.90;;;;;;5060031;28;20022;-73
2022/05/08 05:58:29;;;;;;;;;;;7.30;99.90;;;;;;5073094;28;20334;-73
2022/05/08 06:00:55;;;;;;;;;;;7.30;99.90;;;;;;5073325;28;19954;-73
2022/05/08 06:03:21;;;;;;;;;;;7.40;99.90;;;;;;5072678;28;19909;-73
2022/05/08 06:05:46;;;;;;;;;;;7.50;99.90;;;;;;5053699;28;20339;-73
2022/05/08 06:08:12;;;;;;;;;;;7.60;99.90;;;;;;5058221;28;19913;-73
2022/05/08 06:10:37;;;;;;;;;;;7.80;99.90;;;;;;5072557;28;20437;-73
2022/05/08 06:13:03;;;;;;;;;;;7.80;99.90;;;;;;5071453;28;19934;-73
2022/05/08 06:15:29;;;;;;;;;;;8.00;99.90;;;;;;5055283;28;20388;-73
2022/05/08 06:17:55;;;;;;;;;;;8.20;99.90;;;;;;5052848;28;19913;-73
2022/05/08 06:20:21;;;;;;;;;;;8.20;99.90;;;;;;5052846;28;20415;-73
2022/05/08 06:22:46;;;;;;;;;;;8.20;99.90;;;;;;5056060;28;19908;-73
2022/05/08 06:25:12;;;;;;;;;;;8.10;99.90;;;;;;5072078;28;19915;-73
2022/05/08 06:27:37;;;;;;;;;;;8.10;99.90;;;;;;5069471;28;19948;-73
2022/05/08 06:30:03;;;;;;;;;;;8.20;99.90;;;;;;5052161;28;20005;-73
2022/05/08 06:32:29;;;;;;;;;;;8.30;99.90;;;;;;5052581;28;19909;-73
2022/05/08 06:34:54;;;;;;;;;;;8.40;99.90;;;;;;5052425;28;19909;-73
2022/05/08 06:37:19;;;;;;;;;;;8.60;99.90;;;;;;5052977;28;19913;-73
2022/05/08 06:39:45;;;;;;;;;;;9.00;99.90;;;;;;5052282;28;19912;-73
2022/05/08 06:42:10;;;;;;;;;;;9.30;99.90;;;;;;5053053;28;19935;-74
2022/05/08 06:44:36;;;;;;;;;;;9.40;99.90;;;;;;5064621;28;20007;-73
2022/05/08 06:47:02;;;;;;;;;;;9.70;99.90;;;;;;5060946;28;19975;-73
2022/05/08 06:49:28;;;;;;;;;;;9.90;99.90;;;;;;5056386;28;19927;-73
2022/05/08 06:51:53;;;;;;;;;;;10.20;99.90;;;;;;5052922;28;19913;-73
2022/05/08 06:54:19;;;;;;;;;;;10.60;99.90;;;;;;5053570;28;20290;-74
2022/05/08 06:56:45;;;;;;;;;;;10.80;99.90;;;;;;5068667;28;19952;-73
2022/05/08 07:01:54;;;;;;;;;;;11.40;99.90;;;;;;5071916;28;20535;-73
2022/05/08 07:04:20;;;;;;;;;;;11.50;99.90;;;;;;5071778;28;19909;-74
2022/05/08 07:06:45;;;;;;;;;;;11.80;99.90;;;;;;5059947;28;20326;-73
2022/05/08 07:09:13;;;;;;;;;;;12.20;99.90;;;;;;5052473;28;19920;-73
2022/05/08 07:11:38;;;;;;;;;;;12.20;99.90;;;;;;5052667;28;20286;-73
2022/05/08 07:14:04;;;;;;;;;;;12.30;99.90;;;;;;5057315;28;19909;-73
2022/05/08 07:16:30;;;;;;;;;;;12.40;99.90;;;;;;5056750;28;19916;-73
2022/05/08 07:18:55;;;;;;;;;;;12.60;99.90;;;;;;5052638;28;19908;-74
2022/05/08 07:21:22;;;;;;;;;;;12.80;99.90;;;;;;5051773;28;19909;-73
2022/05/08 07:23:47;;;;;;;;;;;12.90;99.90;;;;;;5053072;28;20050;-73
2022/05/08 07:26:13;;;;;;;;;;;13.00;99.90;;;;;;5048500;28;19995;-73
2022/05/08 07:28:39;;;;;;;;;;;13.30;99.90;;;;;;5071469;28;19916;-74
2022/05/08 07:31:04;;;;;;;;;;;13.60;99.90;;;;;;5071180;28;19913;-73
2022/05/08 07:33:34;;;;;;;;;;;13.50;99.90;;;;;;5071095;28;19912;-73
2022/05/08 07:36:15;;;;;;;;;;;13.80;99.90;;;;;;5071629;28;19908;-73
2022/05/08 07:38:41;;;;;;;;;;;14.00;99.90;;;;;;5071529;28;19916;-73
2022/05/08 07:41:07;;;;;;;;;;;14.40;99.90;;;;;;5071354;28;20324;-74
2022/05/08 07:43:32;;;;;;;;;;;14.60;99.90;;;;;;5066410;28;19909;-73
2022/05/08 07:45:58;;;;;;;;;;;14.10;99.90;;;;;;5059180;28;19916;-73
2022/05/08 07:48:24;;;;;;;;;;;14.20;99.90;;;;;;5064561;28;20004;-73
2022/05/08 07:50:50;;;;;;;;;;;14.20;99.90;;;;;;5057241;28;20328;-74
2022/05/08 07:53:15;;;;;;;;;;;14.50;99.90;;;;;;5054126;28;20328;-73
2022/05/08 07:55:41;;;;;;;;;;;14.40;99.90;;;;;;5058441;28;19940;-74
2022/05/08 07:58:06;;;;;;;;;;;14.50;99.90;;;;;;5057959;28;20369;-74
2022/05/08 08:00:32;;;;;;;;;;;14.90;99.90;;;;;;5071251;28;20292;-73
2022/05/08 08:02:58;;;;;;;;;;;14.80;99.90;;;;;;5065612;28;19909;-74
2022/05/08 08:05:23;;;;;;;;;;;15.20;99.90;;;;;;5052102;28;20000;-74
2022/05/08 08:07:49;;;;;;;;;;;15.60;99.90;;;;;;5051113;28;21892;-74
2022/05/08 08:10:14;;;;;;;;;;;16.00;99.90;;;;;;5060917;28;19915;-74
2022/05/08 08:12:40;;;;;;;;;;;16.20;99.90;;;;;;5070328;28;20106;-74
2022/05/08 08:15:06;;;;;;;;;;;16.00;99.90;;;;;;5059524;28;19909;-74
2022/05/08 08:17:31;;;;;;;;;;;16.20;99.90;;;;;;5056770;28;19992;-74
2022/05/08 08:19:57;;;;;;;;;;;16.50;99.90;;;;;;5050617;28;19908;-74
2022/05/08 08:22:22;;;;;;;;;;;16.60;99.90;;;;;;5051401;28;19924;-74
2022/05/08 08:24:48;;;;;;;;;;;17.40;99.90;;;;;;5051006;28;19917;-74
2022/05/08 08:27:16;;;;;;;;;;;17.80;99.90;;;;;;5060761;28;19913;-74
2022/05/08 08:29:41;;;;;;;;;;;17.40;99.90;;;;;;5070246;28;20361;-74
2022/05/08 08:32:07;;;;;;;;;;;18.00;99.90;;;;;;5070176;28;19908;-74
2022/05/08 08:34:33;;;;;;;;;;;19.10;99.90;;;;;;5071289;28;19912;-74
2022/05/08 08:36:58;;;;;;;;;;;19.10;99.50;;;;;;5074927;28;20361;-74
2022/05/08 08:39:24;;;;;;;;;;;19.20;98.50;;;;;;5074765;28;19999;-74
2022/05/08 08:42:00;;;;;;;;;;;18.90;98.10;;;;;;5047479;28;20290;-74
2022/05/08 08:49:58;;;;;;;;;;;20.10;96.50;;;;;;5054336;28;19924;-74
2022/05/08 08:52:26;;;;;;;;;;;20.40;94.20;;;;;;5061939;28;19912;-74
2022/05/08 08:54:51;;;;;;;;;;;20.60;95.00;;;;;;5073631;28;20384;-74
2022/05/08 08:57:17;;;;;;;;;;;20.70;96.40;;;;;;5059286;28;19909;-74
2022/05/08 08:59:42;;;;;;;;;;;20.80;93.60;;;;;;5058813;28;20025;-74
2022/05/08 09:02:15;;;;;;;;;;;21.20;95.30;;;;;;5055180;28;19916;-74
2022/05/08 09:04:41;;;;;;;;;;;21.70;91.80;;;;;;5054786;28;19944;-74
2022/05/08 09:07:26;;;;;;;;;;;21.40;93.10;;;;;;5054957;28;20321;-74
2022/05/08 09:10:04;;;;;;;;;;;22.40;90.40;;;;;;5054840;28;19912;-74
2022/05/08 09:12:30;;;;;;;;;;;22.10;90.00;;;;;;5054924;28;19966;-74
2022/05/08 09:14:55;;;;;;;;;;;22.00;90.80;;;;;;5054678;28;20650;-74
2022/05/08 09:17:21;;;;;;;;;;;22.40;85.20;;;;;;5054641;28;19999;-74
2022/05/08 09:19:47;;;;;;;;;;;22.60;87.50;;;;;;5054196;28;19913;-74
2022/05/08 09:22:15;;;;;;;;;;;22.50;84.20;;;;;;5059228;28;19980;-74
2022/05/08 09:24:53;;;;;;;;;;;22.50;85.30;;;;;;5054431;28;19967;-74
2022/05/08 09:27:19;;;;;;;;;;;23.00;84.30;;;;;;5054786;28;19909;-74
2022/05/08 09:29:45;;;;;;;;;;;24.10;85.20;;;;;;5054275;28;19920;-75
2022/05/08 09:32:30;;;;;;;;;;;24.10;81.10;;;;;;5054221;28;19915;-73
2022/05/08 09:34:57;;;;;;;;;;;24.50;80.60;;;;;;5054004;28;19916;-73
2022/05/08 09:37:23;;;;;;;;;;;23.10;78.90;;;;;;5054479;28;19951;-74
2022/05/08 09:39:48;;;;;;;;;;;22.40;80.50;;;;;;5054415;28;19956;-74
2022/05/08 09:42:32;;;;;;;;;;;23.20;80.40;;;;;;5054551;28;19916;-74
2022/05/08 09:45:07;;;;;;;;;;;23.50;76.60;;;;;;5053967;28;20576;-74
2022/05/08 09:47:46;;;;;;;;;;;24.20;77.20;;;;;;5052963;28;20292;-74
2022/05/08 09:50:12;;;;;;;;;;;23.40;80.90;;;;;;5054203;28;19947;-74
2022/05/08 09:52:41;;;;;;;;;;;22.30;76.70;;;;;;5053257;28;20487;-74
2022/05/08 09:55:07;;;;;;;;;;;23.30;75.00;;;;;;5053867;28;19948;-74
2022/05/08 09:57:33;;;;;;;;;;;23.50;74.40;;;;;;5053982;28;19909;-74
2022/05/08 09:59:59;;;;;;;;;;;21.90;77.40;;;;;;5053863;28;19944;-74
2022/05/08 10:02:25;;;;;;;;;;;21.80;78.50;;;;;;5053809;28;19955;-74
2022/05/08 10:04:50;;;;;;;;;;;22.80;77.30;;;;;;5054468;28;20336;-74
2022/05/08 10:07:16;;;;;;;;;;;22.80;74.80;;;;;;5053592;28;19913;-74
2022/05/08 10:15:18;;;;;;;;;;;22.70;79.30;;;;;;5049546;28;20053;-74
2022/05/08 10:17:43;;;;;;;;;;;21.90;78.20;;;;;;5053571;28;19959;-74
2022/05/08 10:20:09;;;;;;;;;;;23.20;80.10;;;;;;5053453;28;20281;-72
2022/05/08 10:23:01;;;;;;;;;;;24.20;73.60;;;;;;5053249;28;19954;-72
2022/05/08 10:25:27;;;;;;;;;;;24.50;74.40;;;;;;5046728;28;19909;-74
2022/05/08 10:28:08;;;;;;;;;;;23.10;76.40;;;;;;5053182;28;20384;-74
2022/05/08 10:30:33;;;;;;;;;;;23.70;75.60;;;;;;5053079;28;19936;-74
2022/05/08 10:32:59;;;;;;;;;;;23.10;74.10;;;;;;5066268;28;19982;-74
2022/05/08 10:35:26;;;;;;;;;;;22.50;77.50;;;;;;5056377;28;19916;-74
2022/05/08 10:38:12;;;;;;;;;;;22.50;77.20;;;;;;5053096;28;19909;-74
2022/05/08 10:40:38;;;;;;;;;;;22.50;79.40;;;;;;5052364;28;19913;-74
2022/05/08 10:43:09;;;;;;;;;;;22.10;74.10;;;;;;5061879;28;20101;-74
2022/05/08 10:45:37;;;;;;;;;;;23.20;76.50;;;;;;5071997;28;19934;-74
2022/05/08 10:48:08;;;;;;;;;;;22.80;75.50;;;;;;5071915;28;20009;-74
2022/05/08 10:50:41;;;;;;;;;;;22.40;78.60;;;;;;5072238;28;19916;-74
2022/05/08 10:53:06;;;;;;;;;;;22.40;79.40;;;;;;5071554;28;19909;-74
2022/05/08 10:55:32;;;;;;;;;;;23.60;77.40;;;;;;5071862;28;19916;-74
2022/05/08 10:57:57;;;;;;;;;;;23.60;76.30;;;;;;5061215;28;19981;-74
2022/05/08 11:00:30;;;;;;;;;;;23.70;75.50;;;;;;5052583;28;19909;-74
2022/05/08 11:02:59;;;;;;;;;;;23.20;75.00;;;;;;5052218;28;19909;-74
2022/05/08 11:05:28;;;;;;;;;;;23.20;73.60;;;;;;5052268;28;19909;-74
2022/05/08 11:08:03;;;;;;;;;;;23.20;73.40;;;;;;5052536;28;19966;-74
2022/05/08 11:10:30;;;;;;;;;;;22.70;72.90;;;;;;5052706;28;19909;-74
2022/05/08 11:13:09;;;;;;;;;;;22.80;74.50;;;;;;5052126;28;20262;-74
2022/05/08 11:15:38;;;;;;;;;;;22.70;74.60;;;;;;5052364;28;19909;-74
2022/05/08 11:18:17;;;;;;;;;;;22.80;74.30;;;;;;5052089;28;19908;-74
2022/05/08 11:20:57;;;;;;;;;;;23.10;73.20;;;;;;5052455;28;20309;-74
2022/05/08 11:23:23;;;;;;;;;;;23.60;72.10;;;;;;5051991;28;19948;-74
2022/05/08 11:26:09;;;;;;;;;;;22.20;71.80;;;;;;5052369;28;19909;-74
2022/05/08 11:28:36;;;;;;;;;;;22.60;71.50;;;;;;5051740;28;19919;-74
2022/05/08 11:31:11;;;;;;;;;;;23.00;72.90;;;;;;5045825;28;19909;-74
2022/05/08 11:36:23;;;;;;;;;;;22.70;73.90;;;;;;5051910;28;19915;-74
2022/05/08 11:38:53;;;;;;;;;;;22.00;75.40;;;;;;5052103;28;20323;-74
2022/05/08 11:41:22;;;;;;;;;;;21.60;74.20;;;;;;5051985;28;19978;-74
2022/05/08 11:43:49;;;;;;;;;;;21.40;77.90;;;;;;5051534;28;19909;-74
2022/05/08 11:46:31;;;;;;;;;;;22.00;77.30;;;;;;5052238;28;19962;-74
2022/05/08 11:48:57;;;;;;;;;;;22.70;75.60;;;;;;5051293;28;19923;-74
2022/05/08 11:51:22;;;;;;;;;;;22.10;74.70;;;;;;5056570;28;20274;-74
2022/05/08 11:53:52;;;;;;;;;;;21.00;75.70;;;;;;5051491;28;19917;-74
2022/05/08 11:56:28;;;;;;;;;;;21.20;78.50;;;;;;5052001;28;20385;-74
2022/05/08 11:58:55;;;;;;;;;;;21.40;75.90;;;;;;5051999;28;19913;-74
2022/05/08 12:01:22;;;;;;;;;;;22.10;76.10;;;;;;5051660;28;19919;-74
2022/05/08 12:03:47;;;;;;;;;;;21.70;74.00;;;;;;5045287;28;19913;-73
2022/05/08 12:06:13;;;;;;;;;;;21.40;78.00;;;;;;5051692;28;19932;-74
2022/05/08 12:08:38;;;;;;;;;;;22.20;76.10;;;;;;5051755;28;19936;-74
2022/05/08 12:11:04;;;;;;;;;;;22.30;75.70;;;;;;5053242;28;19909;-73
2022/05/08 12:13:34;;;;;;;;;;;21.20;76.10;;;;;;5055603;28;20427;-74
2022/05/08 12:16:12;;;;;;;;;;;21.10;78.00;;;;;;5055947;28;20369;-74
2022/05/08 12:18:57;;;;;;;;;;;20.90;77.20;;;;;;5055844;28;19909;-74
2022/05/08 12:21:27;;;;;;;;;;;20.50;78.70;;;;;;5055050;28;19923;-74
2022/05/08 12:23:53;;;;;;;;;;;21.20;75.90;;;;;;5055221;28;19909;-74
2022/05/08 12:26:18;;;;;;;;;;;21.80;75.60;;;;;;5055625;28;19909;-74
2022/05/08 12:28:44;;;;;;;;;;;22.50;74.30;;;;;;5055421;28;19913;-74
2022/05/08 12:31:09;;;;;;;;;;;22.70;74.00;;;;;;5055314;28;19919;-74
2022/05/08 12:33:35;;;;;;;;;;;22.70;73.20;;;;;;5055119;28;19948;-74
2022/05/08 12:36:01;;;;;;;;;;;23.20;74.00;;;;;;5055488;28;19909;-74
2022/05/08 12:38:27;;;;;;;;;;;23.80;73.70;;;;;;5055508;28;19908;-74
2022/05/08 12:40:52;;;;;;;;;;;22.80;71.40;;;;;;5055396;28;20289;-74
2022/05/08 12:43:17;;;;;;;;;;;23.40;70.80;;;;;;5054633;28;20358;-74
2022/05/08 12:45:43;;;;;;;;;;;23.40;69.50;;;;;;5055343;28;19916;-74
2022/05/08 12:48:09;;;;;;;;;;;24.00;70.10;;;;;;5055378;28;19943;-74
2022/05/08 12:50:34;;;;;;;;;;;23.80;71.60;;;;;;5057989;28;19909;-73
2022/05/08 12:52:59;;;;;;;;;;;23.30;69.40;;;;;;5054461;28;20401;-73
2022/05/08 12:55:25;;;;;;;;;;;21.90;73.60;;;;;;5054835;28;19945;-72
2022/05/08 13:00:35;;;;;;;;;;;23.60;71.50;;;;;;5057207;28;19916;-73
2022/05/08 13:03:01;;;;;;;;;;;24.10;67.90;;;;;;5073753;28;19912;-74
2022/05/08 13:05:26;;;;;;;;;;;25.80;68.40;;;;;;5074095;28;19997;-74
2022/05/08 13:07:52;;;;;;;;;;;26.40;63.50;;;;;;5060964;28;19955;-74
2022/05/08 13:10:17;;;;;;;;;;;27.00;60.50;;;;;;5062489;28;19908;-73
2022/05/08 13:12:43;;;;;;;;;;;26.90;62.10;;;;;;5072463;28;20354;-74
2022/05/08 13:15:08;;;;;;;;;;;28.10;58.60;;;;;;5073848;28;19999;-74
2022/05/08 13:17:34;;;;;;;;;;;27.60;58.80;;;;;;5074003;28;19908;-74
2022/05/08 13:20:01;;;;;;;;;;;27.90;54.60;;;;;;5073859;28;20394;-74
2022/05/08 13:22:27;;;;;;;;;;;28.10;59.00;;;;;;5073469;28;20417;-74
2022/05/08 13:24:52;;;;;;;;;;;25.50;61.40;;;;;;5073523;28;19995;-74
2022/05/08 13:27:18;;;;;;;;;;;24.60;63.00;;;;;;5073639;28;19936;-73
2022/05/08 13:29:43;;;;;;;;;;;22.30;68.10;;;;;;5073805;28;19912;-74
2022/05/08 13:32:09;;;;;;;;;;;21.40;69.60;;;;;;5073178;28;20293;-73
2022/05/08 13:34:34;;;;;;;;;;;22.10;68.40;;;;;;5073306;28;19909;-74
2022/05/08 13:37:00;;;;;;;;;;;21.40;71.20;;;;;;5063101;28;20342;-74
2022/05/08 13:39:25;;;;;;;;;;;22.60;71.70;;;;;;5053176;28;19915;-74
2022/05/08 13:41:52;;;;;;;;;;;22.70;67.60;;;;;;5053856;28;20007;-74
2022/05/08 13:44:18;;;;;;;;;;;22.30;68.70;;;;;;5053951;28;19909;-74
2022/05/08 13:46:44;;;;;;;;;;;22.20;69.80;;;;;;5065399;28;19954;-74
2022/05/08 13:49:10;;;;;;;;;;;21.40;69.20;;;;;;5073093;28;20011;-74
2022/05/08 13:51:35;;;;;;;;;;;21.60;71.60;;;;;;5073114;28;19958;-74
2022/05/08 13:54:02;;;;;;;;;;;21.00;71.90;;;;;;5072978;28;20358;-74
2022/05/08 13:56:28;;;;;;;;;;;21.10;71.30;;;;;;5073041;28;19931;-74
2022/05/08 13:58:56;;;;;;;;;;;20.90;71.70;;;;;;5073108;28;20365;-73
2022/05/08 14:01:22;;;;;;;;;;;21.10;72.70;;;;;;5072938;28;20372;-74
2022/05/08 14:03:47;;;;;;;;;;;21.50;73.40;;;;;;5072817;28;20361;-74
2022/05/08 14:06:13;;;;;;;;;;;21.40;74.20;;;;;;5072888;28;19916;-74
2022/05/08 14:08:39;;;;;;;;;;;20.90;70.40;;;;;;5053728;28;19913;-74
2022/05/08 14:11:04;;;;;;;;;;;20.60;72.80;;;;;;5053315;28;19909;-74
2022/05/08 14:13:30;;;;;;;;;;;20.60;73.80;;;;;;5052351;28;19917;-74
2022/05/08 14:15:55;;;;;;;;;;;20.80;73.50;;;;;;5053982;28;19913;-74
2022/05/08 14:18:21;;;;;;;;;;;20.30;73.10;;;;;;5053907;28;19909;-73
2022/05/08 14:20:47;;;;;;;;;;;20.40;75.00;;;;;;5053624;28;19909;-74
2022/05/08 14:23:12;;;;;;;;;;;20.90;74.30;;;;;;5053251;28;19909;-74
2022/05/08 14:25:38;;;;;;;;;;;19.90;76.70;;;;;;5053739;28;19909;-74
2022/05/08 14:28:03;;;;;;;;;;;19.40;77.20;;;;;;5053732;28;20385;-73
2022/05/08 14:30:29;;;;;;;;;;;19.20;77.90;;;;;;5053474;28;20011;-73
2022/05/08 14:38:23;;;;;;;;;;;19.00;79.10;;;;;;5053040;28;20373;-74
2022/05/08 14:40:49;;;;;;;;;;;18.80;80.20;;;;;;5053076;28;19909;-74
2022/05/08 14:43:16;;;;;;;;;;;18.90;78.30;;;;;;5053039;28;20365;-74
2022/05/08 14:45:41;;;;;;;;;;;18.90;79.10;;;;;;5053267;28;20290;-73
2022/05/08 14:48:07;;;;;;;;;;;19.00;77.60;;;;;;5052919;28;19913;-74
2022/05/08 14:50:32;;;;;;;;;;;19.20;77.70;;;;;;5052090;28;19909;-73
2022/05/08 14:53:00;;;;;;;;;;;19.50;77.10;;;;;;5052587;28;20393;-73
2022/05/08 14:55:26;;;;;;;;;;;19.30;75.80;;;;;;5052675;28;19995;-73
2022/05/08 14:57:54;;;;;;;;;;;19.30;77.00;;;;;;5052974;28;19909;-73
2022/05/08 15:00:19;;;;;;;;;;;19.40;76.40;;;;;;5051515;28;19916;-73